createdAt,value
2023-04-07T00:01:54.401Z,29.89
2023-04-07T00:04:21.061Z,30.13
2023-04-07T00:06:47.747Z,29.29
2023-04-07T00:09:14.315Z,29.74
2023-04-07T00:11:40.842Z,30.46
2023-04-07T00:14:07.455Z,30.26
2023-04-07T00:16:34.020Z,29.96
2023-04-07T00:19:00.559Z,30.14
2023-04-07T00:21:27.196Z,30.33
2023-04-07T00:23:53.947Z,30.25
2023-04-07T00:26:21.137Z,30.21
2023-04-07T00:28:47.829Z,30.37
2023-04-07T00:31:14.641Z,30.86
2023-04-07T00:33:41.390Z,30.55
2023-04-07T00:36:07.982Z,30.20
2023-04-07T00:38:34.487Z,30.67
2023-04-07T00:41:01.294Z,30.15
2023-04-07T00:43:27.849Z,30.49
2023-04-07T00:45:54.513Z,30.78
2023-04-07T00:48:21.423Z,30.56
2023-04-07T00:50:47.956Z,30.55
2023-04-07T00:53:14.524Z,31.04
2023-04-07T00:55:41.322Z,31.14
2023-04-07T00:58:09.221Z,31.26
2023-04-07T01:00:44.349Z,31.16
2023-04-07T01:03:18.914Z,31.36
2023-04-07T01:05:56.416Z,31.29
2023-04-07T01:08:43.916Z,31.23
2023-04-07T01:11:21.845Z,31.46
2023-04-07T01:13:51.006Z,31.68
2023-04-07T01:16:48.286Z,31.81
2023-04-07T01:19:51.323Z,31.28
2023-04-07T01:22:23.782Z,31.82
2023-04-07T01:25:17.169Z,31.53
2023-04-07T01:28:02.474Z,31.43
2023-04-07T01:30:32.129Z,31.71
2023-04-07T01:33:00.034Z,31.77
2023-04-07T01:35:28.158Z,31.89
2023-04-07T01:37:56.093Z,31.74
2023-04-07T01:40:23.007Z,32.37
2023-04-07T01:42:49.961Z,32.00
2023-04-07T01:45:16.973Z,31.75
2023-04-07T01:47:44.118Z,32.16
2023-04-07T01:50:12.051Z,32.25
2023-04-07T01:52:40.006Z,32.15
2023-04-07T01:55:07.225Z,32.12
2023-04-07T01:57:39.258Z,32.37
2023-04-07T02:00:12.767Z,32.78
2023-04-07T02:02:44.665Z,32.40
2023-04-07T02:05:14.113Z,32.49
2023-04-07T02:07:56.105Z,32.50
2023-04-07T02:10:26.220Z,32.65
2023-04-07T02:12:57.066Z,32.64
2023-04-07T02:15:24.541Z,33.12
2023-04-07T02:17:52.996Z,33.58
2023-04-07T02:20:21.049Z,33.70
2023-04-07T02:22:48.079Z,33.31
2023-04-07T02:25:28.861Z,33.01
2023-04-07T02:27:57.198Z,33.00
2023-04-07T02:30:24.051Z,33.14
2023-04-07T02:32:50.935Z,32.82
2023-04-07T02:35:17.502Z,33.20
2023-04-07T02:37:45.017Z,33.29
2023-04-07T02:40:11.803Z,33.11
2023-04-07T02:42:38.642Z,33.05
2023-04-07T02:45:06.018Z,33.30
2023-04-07T02:47:33.497Z,33.02
2023-04-07T02:50:00.300Z,32.93
2023-04-07T02:52:26.852Z,33.00
2023-04-07T02:54:53.769Z,32.90
2023-04-07T02:57:23.957Z,33.45
2023-04-07T02:59:55.190Z,33.45
2023-04-07T03:02:23.272Z,33.81
2023-04-07T03:04:51.975Z,33.27
2023-04-07T03:07:19.363Z,33.03
2023-04-07T03:09:46.677Z,33.24
2023-04-07T03:12:14.726Z,33.14
2023-04-07T03:14:41.247Z,33.35
2023-04-07T03:17:08.084Z,33.03
2023-04-07T03:19:35.351Z,33.25
2023-04-07T03:22:01.900Z,33.13
2023-04-07T03:24:33.910Z,32.95
2023-04-07T03:27:02.297Z,33.16
2023-04-07T03:29:38.593Z,33.22
2023-04-07T03:32:08.043Z,33.13
2023-04-07T03:34:34.665Z,33.32
2023-04-07T03:37:01.157Z,33.26
2023-04-07T03:39:31.022Z,33.51
2023-04-07T03:42:00.101Z,33.52
2023-04-07T03:44:30.275Z,33.57
2023-04-07T03:46:56.812Z,33.75
2023-04-07T03:49:24.537Z,33.67
2023-04-07T03:51:51.636Z,33.53
2023-04-07T03:54:19.455Z,33.82
2023-04-07T03:56:46.215Z,33.93
2023-04-07T03:59:15.455Z,34.15
2023-04-07T04:01:53.027Z,33.71
2023-04-07T04:04:19.640Z,33.36
2023-04-07T04:06:46.146Z,33.15
2023-04-07T04:09:24.860Z,33.55
2023-04-07T04:11:51.464Z,33.36
2023-04-07T04:14:18.640Z,33.75
2023-04-07T04:16:52.162Z,33.53
2023-04-07T04:19:29.619Z,33.30
2023-04-07T04:21:58.246Z,33.51
2023-04-07T04:24:26.391Z,33.75
2023-04-07T04:26:57.178Z,33.81
2023-04-07T04:29:23.698Z,33.69
2023-04-07T04:31:50.708Z,33.69
2023-04-07T04:34:17.494Z,33.66
2023-04-07T04:36:45.155Z,33.79
2023-04-07T04:39:11.951Z,33.68
2023-04-07T04:41:39.410Z,33.81
2023-04-07T04:44:07.043Z,33.71
2023-04-07T04:46:33.921Z,33.75
2023-04-07T04:49:00.724Z,33.67
2023-04-07T04:51:28.012Z,33.14
2023-04-07T04:54:00.852Z,33.63
2023-04-07T04:56:27.904Z,33.64
2023-04-07T04:58:54.494Z,33.65
2023-04-07T05:01:33.611Z,33.28
2023-04-07T05:04:10.408Z,33.04
2023-04-07T05:06:40.970Z,32.98
2023-04-07T05:09:11.064Z,33.23
2023-04-07T05:11:42.966Z,32.96
2023-04-07T05:14:09.590Z,32.96
2023-04-07T05:16:39.719Z,32.90
2023-04-07T05:19:06.877Z,33.35
2023-04-07T05:21:33.354Z,33.21
2023-04-07T05:24:03.036Z,32.74
2023-04-07T05:26:31.855Z,32.85
2023-04-07T05:28:59.580Z,32.91
2023-04-07T05:31:26.142Z,32.91
2023-04-07T05:33:56.077Z,32.61
2023-04-07T05:36:25.603Z,32.58
2023-04-07T05:38:55.712Z,32.55
2023-04-07T05:41:22.400Z,32.29
2023-04-07T05:43:49.127Z,32.40
2023-04-07T05:46:17.073Z,32.02
2023-04-07T05:48:51.846Z,32.51
2023-04-07T05:51:19.572Z,31.89
2023-04-07T05:53:46.125Z,32.21
2023-04-07T05:56:12.639Z,32.38
2023-04-07T05:58:43.556Z,32.18
2023-04-07T06:01:11.299Z,31.94
2023-04-07T06:03:38.057Z,31.62
2023-04-07T06:06:12.623Z,31.68
2023-04-07T06:08:39.210Z,31.18
2023-04-07T06:11:06.116Z,31.46
2023-04-07T06:13:33.691Z,31.71
2023-04-07T06:16:00.255Z,30.90
2023-04-07T06:18:26.746Z,31.15
2023-04-07T06:20:53.226Z,30.40
2023-04-07T06:23:19.743Z,30.01
2023-04-07T06:25:46.388Z,29.04
2023-04-07T06:28:12.869Z,27.76
2023-04-07T06:30:41.004Z,26.26
2023-04-07T06:33:10.823Z,25.22
2023-04-07T06:35:39.366Z,23.88
2023-04-07T06:38:07.431Z,22.71
2023-04-07T06:40:33.960Z,21.76
2023-04-07T06:43:00.462Z,20.83
2023-04-07T06:45:33.336Z,20.27
2023-04-07T06:48:00.016Z,20.00
2023-04-07T06:50:26.573Z,19.76
2023-04-07T06:52:53.269Z,19.95
2023-04-07T06:55:19.772Z,19.56
2023-04-07T06:57:46.289Z,19.44
2023-04-07T07:00:12.937Z,19.81
2023-04-07T07:02:39.587Z,20.20
2023-04-07T07:05:07.053Z,20.73
2023-04-07T07:07:33.533Z,21.12
2023-04-07T07:09:59.987Z,21.32
2023-04-07T07:12:26.496Z,21.89
2023-04-07T07:14:53.003Z,22.17
2023-04-07T07:17:19.526Z,22.30
2023-04-07T07:19:46.014Z,21.94
2023-04-07T07:22:12.506Z,21.88
2023-04-07T07:24:39.035Z,22.30
2023-04-07T07:27:05.541Z,22.12
2023-04-07T07:29:32.144Z,21.56
2023-04-07T07:31:58.638Z,21.54
2023-04-07T07:34:25.278Z,21.52
2023-04-07T07:36:51.826Z,21.49
2023-04-07T07:39:18.342Z,21.47
2023-04-07T07:41:45.331Z,22.61
2023-04-07T07:44:11.859Z,22.06
2023-04-07T07:46:38.434Z,21.92
2023-04-07T07:49:05.864Z,22.12
2023-04-07T07:51:32.410Z,21.86
2023-04-07T07:53:59.005Z,21.68
2023-04-07T07:56:25.573Z,22.14
2023-04-07T07:58:52.224Z,23.06
2023-04-07T08:01:18.822Z,23.23
2023-04-07T08:03:45.946Z,23.85
2023-04-07T08:06:13.026Z,23.99
2023-04-07T08:08:39.542Z,23.45
2023-04-07T08:11:06.192Z,24.60
2023-04-07T08:13:32.884Z,24.71
2023-04-07T08:15:59.397Z,24.78
2023-04-07T08:18:25.954Z,24.36
2023-04-07T08:20:52.741Z,24.98
2023-04-07T08:23:19.317Z,24.39
2023-04-07T08:25:45.804Z,24.06
2023-04-07T08:28:12.436Z,24.41
2023-04-07T08:30:39.017Z,24.55
2023-04-07T08:33:06.450Z,24.22
2023-04-07T08:35:32.973Z,24.36
2023-04-07T08:37:59.521Z,24.35
2023-04-07T08:40:26.337Z,23.69
2023-04-07T08:42:53.312Z,23.79
2023-04-07T08:45:20.028Z,23.70
2023-04-07T08:47:48.022Z,23.94
2023-04-07T08:50:17.227Z,22.76
2023-04-07T08:52:57.480Z,22.89
2023-04-07T08:55:24.139Z,22.63
2023-04-07T08:57:51.448Z,21.86
2023-04-07T09:00:18.514Z,21.25
2023-04-07T09:02:45.819Z,21.46
2023-04-07T09:05:14.613Z,21.10
2023-04-07T09:07:43.181Z,21.19
2023-04-07T09:10:10.374Z,20.87
2023-04-07T09:12:37.449Z,20.50
2023-04-07T09:15:06.172Z,20.62
2023-04-07T09:17:32.995Z,20.98
2023-04-07T09:20:01.048Z,20.99
2023-04-07T09:22:37.948Z,21.43
2023-04-07T09:25:18.612Z,20.83
2023-04-07T09:28:14.671Z,21.12
2023-04-07T09:30:53.053Z,21.11
2023-04-07T09:33:28.084Z,21.30
2023-04-07T09:35:54.685Z,21.44
2023-04-07T09:38:21.213Z,21.15
2023-04-07T09:40:48.453Z,21.46
2023-04-07T09:43:17.216Z,21.36
2023-04-07T09:45:43.808Z,22.07
2023-04-07T09:48:20.768Z,21.44
2023-04-07T09:50:51.897Z,21.54
2023-04-07T09:53:20.181Z,20.70
2023-04-07T09:55:47.196Z,21.25
2023-04-07T09:58:16.995Z,21.24
2023-04-07T10:00:43.813Z,20.67
2023-04-07T10:03:10.996Z,20.21
2023-04-07T10:05:38.869Z,20.38
2023-04-07T10:08:06.634Z,20.52
2023-04-07T10:10:34.022Z,20.54
2023-04-07T10:13:00.742Z,21.14
2023-04-07T10:15:27.376Z,21.14
2023-04-07T10:17:54.028Z,20.97
2023-04-07T10:20:21.275Z,21.56
2023-04-07T10:22:51.358Z,21.44
2023-04-07T10:25:20.026Z,20.88
2023-04-07T10:27:55.244Z,20.92
2023-04-07T10:30:29.977Z,20.96
2023-04-07T10:32:57.158Z,20.53
2023-04-07T10:35:24.271Z,20.90
2023-04-07T10:38:11.589Z,20.43
2023-04-07T10:40:38.452Z,20.54
2023-04-07T10:43:09.717Z,21.04
2023-04-07T10:45:48.621Z,21.34
2023-04-07T10:48:16.511Z,21.53
2023-04-07T10:50:43.016Z,21.42
2023-04-07T10:53:12.323Z,21.25
2023-04-07T10:55:43.886Z,21.51
2023-04-07T10:58:25.981Z,21.88
2023-04-07T11:01:04.860Z,21.45
2023-04-07T11:03:34.080Z,21.58
2023-04-07T11:06:11.021Z,21.59
2023-04-07T11:08:39.253Z,21.81
2023-04-07T11:11:09.268Z,21.97
2023-04-07T11:13:42.346Z,21.43
2023-04-07T11:16:09.815Z,21.86
2023-04-07T11:18:37.507Z,22.56
2023-04-07T11:21:06.226Z,22.87
2023-04-07T11:23:46.095Z,23.37
2023-04-07T11:26:14.336Z,23.77
2023-04-07T11:28:48.129Z,24.45
2023-04-07T11:31:28.741Z,24.28
2023-04-07T11:33:57.154Z,25.26
2023-04-07T11:36:28.533Z,25.95
2023-04-07T11:38:56.493Z,26.13
2023-04-07T11:41:23.180Z,26.75
2023-04-07T11:43:51.042Z,27.43
2023-04-07T11:46:18.524Z,27.70
2023-04-07T11:48:45.863Z,28.28
2023-04-07T11:51:19.976Z,29.49
2023-04-07T11:53:47.638Z,30.42
2023-04-07T11:56:19.286Z,31.01
2023-04-07T11:58:49.608Z,31.74
2023-04-07T12:01:16.404Z,32.58
2023-04-07T12:04:00.218Z,34.05
2023-04-07T12:06:38.585Z,34.43
2023-04-07T12:09:05.800Z,34.21
2023-04-07T12:11:33.122Z,34.89
2023-04-07T12:13:59.673Z,35.25
2023-04-07T12:16:26.247Z,35.68
2023-04-07T12:18:53.028Z,36.29
2023-04-07T12:21:19.919Z,37.23
2023-04-07T12:23:47.938Z,37.07
2023-04-07T12:26:14.629Z,37.22
2023-04-07T12:28:41.152Z,37.80
2023-04-07T12:31:07.671Z,37.96
2023-04-07T12:33:34.143Z,37.99
2023-04-07T12:36:00.998Z,37.88
2023-04-07T12:38:28.767Z,38.08
2023-04-07T12:40:55.472Z,38.33
2023-04-07T12:43:21.966Z,38.65
2023-04-07T12:45:48.493Z,38.81
2023-04-07T12:48:16.269Z,39.09
2023-04-07T12:50:42.804Z,39.36
2023-04-07T12:53:09.387Z,39.51
2023-04-07T12:55:36.339Z,40.29
2023-04-07T12:58:03.226Z,39.93
2023-04-07T13:00:29.829Z,39.87
2023-04-07T13:02:56.655Z,40.03
2023-04-07T13:05:23.394Z,40.55
2023-04-07T13:07:50.068Z,40.11
2023-04-07T13:10:16.580Z,40.16
2023-04-07T13:12:43.260Z,40.27
2023-04-07T13:15:09.790Z,40.24
2023-04-07T13:17:39.225Z,40.74
2023-04-07T13:20:06.756Z,40.43
2023-04-07T13:22:35.735Z,40.61
2023-04-07T13:25:02.511Z,40.75
2023-04-07T13:27:29.060Z,40.53
2023-04-07T13:29:55.818Z,40.33
2023-04-07T13:32:22.350Z,40.25
2023-04-07T13:34:49.240Z,40.59
2023-04-07T13:37:16.620Z,40.68
2023-04-07T13:39:43.095Z,40.33
2023-04-07T13:42:10.913Z,40.21
2023-04-07T13:44:40.093Z,40.13
2023-04-07T13:47:06.758Z,39.97
2023-04-07T13:49:33.268Z,40.29
2023-04-07T13:51:59.756Z,40.29
2023-04-07T13:54:26.251Z,40.66
2023-04-07T13:56:52.769Z,39.93
2023-04-07T13:59:19.305Z,40.51
2023-04-07T14:01:45.938Z,40.72
2023-04-07T14:04:12.607Z,40.65
2023-04-07T14:06:39.170Z,40.79
2023-04-07T14:09:06.519Z,40.65
2023-04-07T14:11:34.782Z,40.67
2023-04-07T14:14:02.056Z,40.89
2023-04-07T14:16:28.957Z,40.84
2023-04-07T14:18:56.046Z,41.08
2023-04-07T14:21:22.974Z,41.08
2023-04-07T14:23:49.599Z,41.16
2023-04-07T14:26:16.168Z,40.85
2023-04-07T14:28:42.837Z,41.48
2023-04-07T14:31:14.265Z,42.19
2023-04-07T14:33:40.977Z,41.93
2023-04-07T14:36:07.624Z,42.20
2023-04-07T14:38:35.317Z,42.63
2023-04-07T14:43:32.668Z,42.50
2023-04-07T14:45:59.864Z,43.06
2023-04-07T14:48:26.713Z,43.00
2023-04-07T14:51:06.034Z,43.82
2023-04-07T14:53:35.114Z,44.03
2023-04-07T14:56:04.818Z,44.00
2023-04-07T14:58:31.913Z,44.02
2023-04-07T15:00:58.393Z,43.48
2023-04-07T15:03:25.186Z,43.54
2023-04-07T15:05:51.948Z,44.14
2023-04-07T15:08:18.522Z,43.72
2023-04-07T15:10:45.049Z,44.00
2023-04-07T15:13:11.624Z,44.72
2023-04-07T15:15:38.177Z,44.30
2023-04-07T15:18:04.803Z,44.30
2023-04-07T15:20:31.374Z,44.92
2023-04-07T15:22:58.031Z,44.70
2023-04-07T15:25:24.638Z,45.11
2023-04-07T15:27:51.310Z,44.68
2023-04-07T15:30:17.906Z,44.83
2023-04-07T15:33:03.006Z,45.40
2023-04-07T15:35:30.048Z,46.00
2023-04-07T15:37:56.620Z,45.52
2023-04-07T15:40:23.205Z,45.89
2023-04-07T15:42:49.769Z,46.38
2023-04-07T15:45:16.257Z,46.61
2023-04-07T15:47:42.851Z,46.42
2023-04-07T15:50:10.800Z,46.47
2023-04-07T15:52:37.500Z,46.91
2023-04-07T15:55:04.165Z,46.55
2023-04-07T15:57:30.882Z,46.68
2023-04-07T15:59:57.354Z,46.61
2023-04-07T16:02:24.076Z,46.88
2023-04-07T16:04:51.194Z,47.19
2023-04-07T16:07:17.869Z,47.22
2023-04-07T16:09:44.376Z,47.65
2023-04-07T16:12:10.905Z,47.58
2023-04-07T16:14:37.421Z,47.13
2023-04-07T16:17:03.979Z,46.88
2023-04-07T16:19:30.517Z,46.66
2023-04-07T16:21:57.002Z,46.62
2023-04-07T16:24:23.575Z,46.17
2023-04-07T16:26:51.366Z,46.58
2023-04-07T16:29:20.545Z,46.01
2023-04-07T16:31:47.076Z,46.38
2023-04-07T16:34:13.743Z,46.58
2023-04-07T16:36:41.081Z,46.05
2023-04-07T16:39:07.709Z,46.19
2023-04-07T16:41:34.209Z,46.82
2023-04-07T16:44:00.891Z,47.13
2023-04-07T16:46:29.767Z,46.76
2023-04-07T16:48:56.452Z,46.91
2023-04-07T16:51:24.160Z,47.02
2023-04-07T16:53:51.076Z,46.22
2023-04-07T16:56:19.041Z,46.98
2023-04-07T16:58:45.868Z,46.76
2023-04-07T17:01:12.477Z,46.51
2023-04-07T17:03:39.539Z,46.61
2023-04-07T17:06:06.183Z,46.89
2023-04-07T17:08:33.369Z,46.59
2023-04-07T17:11:00.014Z,46.52
2023-04-07T17:13:26.915Z,46.48
2023-04-07T17:15:54.005Z,45.99
2023-04-07T17:18:20.703Z,46.38
2023-04-07T17:20:47.227Z,46.37
2023-04-07T17:23:14.273Z,46.76
2023-04-07T17:25:40.967Z,46.90
2023-04-07T17:28:07.461Z,46.72
2023-04-07T17:30:36.413Z,46.55
2023-04-07T17:33:04.006Z,47.44
2023-04-07T17:35:30.626Z,47.20
2023-04-07T17:37:57.237Z,47.17
2023-04-07T17:40:23.740Z,47.29
2023-04-07T17:42:50.218Z,47.17
2023-04-07T17:45:17.765Z,46.62
2023-04-07T17:47:46.181Z,47.06
2023-04-07T17:50:13.211Z,47.08
2023-04-07T17:52:39.734Z,46.99
2023-04-07T17:55:07.954Z,47.05
2023-04-07T17:57:37.529Z,47.14
2023-04-07T18:00:05.828Z,47.12
2023-04-07T18:02:40.436Z,46.88
2023-04-07T18:05:07.386Z,46.51
2023-04-07T18:07:34.341Z,47.17
2023-04-07T18:10:01.417Z,46.91
2023-04-07T18:12:27.917Z,46.85
2023-04-07T18:14:54.432Z,47.20
2023-04-07T18:17:21.009Z,46.53
2023-04-07T18:19:47.521Z,46.93
2023-04-07T18:22:16.136Z,47.12
2023-04-07T18:24:42.721Z,47.18
2023-04-07T18:27:10.167Z,47.46
2023-04-07T18:29:36.673Z,47.06
2023-04-07T18:32:03.210Z,47.19
2023-04-07T18:34:29.730Z,47.41
2023-04-07T18:36:56.528Z,47.58
2023-04-07T18:39:23.084Z,47.59
2023-04-07T18:41:49.829Z,47.45
2023-04-07T18:44:16.284Z,47.09
2023-04-07T18:46:42.928Z,47.12
2023-04-07T18:49:10.264Z,46.90
2023-04-07T18:51:36.926Z,46.66
2023-04-07T18:54:03.487Z,47.37
2023-04-07T18:56:31.384Z,47.27
2023-04-07T18:58:57.966Z,47.30
2023-04-07T19:01:24.667Z,47.11
2023-04-07T19:03:51.495Z,47.21
2023-04-07T19:06:18.169Z,47.12
2023-04-07T19:08:45.301Z,47.28
2023-04-07T19:11:11.933Z,46.93
2023-04-07T19:13:38.467Z,46.88
2023-04-07T19:16:05.163Z,47.52
2023-04-07T19:18:32.068Z,47.50
2023-04-07T19:20:58.605Z,47.75
2023-04-07T19:23:25.370Z,47.82
2023-04-07T19:25:52.022Z,48.35
2023-04-07T19:28:18.727Z,48.22
2023-04-07T19:30:45.209Z,48.43
2023-04-07T19:33:12.046Z,47.95
2023-04-07T19:35:41.725Z,49.30
2023-04-07T19:38:08.256Z,49.15
2023-04-07T19:40:36.035Z,48.63
2023-04-07T19:43:02.552Z,48.76
2023-04-07T19:45:29.145Z,49.17
2023-04-07T19:47:56.826Z,49.55
2023-04-07T19:50:23.664Z,49.17
2023-04-07T19:52:53.204Z,48.94
2023-04-07T19:55:19.795Z,48.88
2023-04-07T19:57:47.067Z,48.83
2023-04-07T20:00:13.870Z,49.00
2023-04-07T20:02:49.822Z,48.55
2023-04-07T20:05:17.876Z,48.58
2023-04-07T20:07:44.700Z,48.11
2023-04-07T20:10:11.554Z,48.38
2023-04-07T20:12:38.045Z,48.61
2023-04-07T20:15:07.050Z,48.38
2023-04-07T20:17:33.618Z,48.03
2023-04-07T20:20:00.418Z,48.43
2023-04-07T20:22:26.890Z,47.98
2023-04-07T20:24:53.413Z,48.39
2023-04-07T20:27:19.949Z,47.57
2023-04-07T20:29:46.402Z,47.95
2023-04-07T20:32:12.985Z,47.79
2023-04-07T20:34:39.511Z,47.38
2023-04-07T20:37:06.014Z,47.95
2023-04-07T20:39:32.604Z,47.55
2023-04-07T20:41:59.435Z,47.39
2023-04-07T20:44:28.084Z,47.82
2023-04-07T20:46:54.657Z,47.38
2023-04-07T20:49:21.641Z,47.35
2023-04-07T20:51:48.153Z,47.14
2023-04-07T20:54:14.646Z,47.01
2023-04-07T20:56:42.877Z,47.24
2023-04-07T20:59:09.404Z,47.68
2023-04-07T21:01:36.530Z,47.38
2023-04-07T21:04:03.429Z,47.15
2023-04-07T21:06:30.009Z,47.15
2023-04-07T21:08:56.784Z,47.39
2023-04-07T21:11:23.275Z,48.04
2023-04-07T21:13:49.789Z,47.74
2023-04-07T21:16:16.458Z,47.68
2023-04-07T21:18:43.033Z,47.47
2023-04-07T21:21:09.595Z,48.17
2023-04-07T21:23:36.266Z,47.94
2023-04-07T21:26:03.296Z,47.44
2023-04-07T21:28:29.975Z,47.41
2023-04-07T21:30:56.808Z,46.89
2023-04-07T21:33:23.414Z,47.45
2023-04-07T21:35:50.907Z,47.70
2023-04-07T21:38:17.405Z,47.14
2023-04-07T21:40:43.935Z,47.21
2023-04-07T21:43:10.454Z,47.48
2023-04-07T21:45:36.957Z,47.40
2023-04-07T21:48:04.292Z,47.11
2023-04-07T21:50:31.198Z,47.01
2023-04-07T21:52:57.670Z,47.72
2023-04-07T21:55:24.193Z,46.98
2023-04-07T21:57:50.707Z,47.65
2023-04-07T22:00:17.324Z,47.25
2023-04-07T22:02:45.228Z,47.27
2023-04-07T22:05:12.099Z,47.68
2023-04-07T22:07:38.595Z,47.25
2023-04-07T22:10:05.593Z,47.61
2023-04-07T22:12:32.063Z,47.98
2023-04-07T22:14:58.571Z,47.72
2023-04-07T22:17:25.528Z,48.40
2023-04-07T22:19:52.104Z,47.98
2023-04-07T22:22:18.727Z,47.97
2023-04-07T22:24:45.389Z,48.64
2023-04-07T22:27:11.883Z,48.30
2023-04-07T22:29:38.368Z,48.77
2023-04-07T22:32:04.977Z,48.88
2023-04-07T22:34:31.489Z,48.91
2023-04-07T22:36:58.005Z,49.01
2023-04-07T22:39:24.552Z,48.93
2023-04-07T22:41:51.035Z,49.10
2023-04-07T22:44:17.568Z,49.07
2023-04-07T22:46:44.155Z,48.89
2023-04-07T22:49:10.968Z,49.52
2023-04-07T22:51:37.498Z,49.64
2023-04-07T22:54:04.044Z,49.58
2023-04-07T22:56:31.039Z,49.54
2023-04-07T22:59:05.205Z,49.51
2023-04-07T23:01:32.252Z,49.33
2023-04-07T23:03:59.100Z,49.93
2023-04-07T23:06:28.503Z,49.80
2023-04-07T23:08:55.732Z,50.13
2023-04-07T23:11:22.678Z,49.74
2023-04-07T23:13:49.494Z,49.82
2023-04-07T23:16:16.282Z,50.01
2023-04-07T23:18:42.954Z,49.42
2023-04-07T23:21:09.786Z,49.77
2023-04-07T23:23:36.608Z,49.85
2023-04-07T23:26:03.129Z,49.06
2023-04-07T23:28:29.694Z,49.23
2023-04-07T23:30:57.044Z,50.31
2023-04-07T23:33:23.751Z,49.98
2023-04-07T23:35:50.585Z,50.35
2023-04-07T23:38:17.184Z,49.78
2023-04-07T23:40:43.746Z,50.68
2023-04-07T23:43:10.752Z,50.97
2023-04-07T23:45:37.261Z,50.97
2023-04-07T23:48:03.809Z,51.10
2023-04-07T23:50:30.918Z,51.17
2023-04-07T23:52:57.442Z,51.61
2023-04-07T23:55:23.949Z,52.13
2023-04-07T23:57:50.628Z,51.35
